sensor_id;sensor_type;location;lat;lon;timestamp;P1;durP1;ratioP1;P2;durP2;ratioP2
35372;SDS011;21476;51.652;7.852;2023-02-01T00:01:22;21.00;;;7.07;;
35372;SDS011;21476;51.652;7.852;2023-02-01T00:03:48;29.40;;;7.53;;
35372;SDS011;21476;51.652;7.852;2023-02-01T00:06:14;24.02;;;8.27;;
35372;SDS011;21476;51.652;7.852;2023-02-01T00:08:39;28.90;;;7.50;;
35372;SDS011;21476;51.652;7.852;2023-02-01T00:11:07;25.13;;;7.40;;
35372;SDS011;21476;51.652;7.852;2023-02-01T00:13:35;32.65;;;9.77;;
35372;SDS011;21476;51.652;7.852;2023-02-01T00:16:08;29.45;;;9.10;;
35372;SDS011;21476;51.652;7.852;2023-02-01T00:18:41;26.65;;;10.65;;
35372;SDS011;21476;51.652;7.852;2023-02-01T00:21:07;38.25;;;10.00;;
35372;SDS011;21476;51.652;7.852;2023-02-01T00:23:35;31.33;;;10.63;;
35372;SDS011;21476;51.652;7.852;2023-02-01T00:26:01;30.17;;;10.30;;
35372;SDS011;21476;51.652;7.852;2023-02-01T00:28:28;38.20;;;11.43;;
35372;SDS011;21476;51.652;7.852;2023-02-01T00:30:57;34.25;;;10.63;;
35372;SDS011;21476;51.652;7.852;2023-02-01T00:33:24;32.10;;;12.13;;
35372;SDS011;21476;51.652;7.852;2023-02-01T00:35:50;25.63;;;12.32;;
35372;SDS011;21476;51.652;7.852;2023-02-01T00:38:15;27.67;;;12.25;;
35372;SDS011;21476;51.652;7.852;2023-02-01T00:40:41;33.38;;;11.13;;
35372;SDS011;21476;51.652;7.852;2023-02-01T00:43:07;30.83;;;13.00;;
35372;SDS011;21476;51.652;7.852;2023-02-01T00:45:32;37.33;;;14.30;;
35372;SDS011;21476;51.652;7.852;2023-02-01T00:47:58;34.67;;;14.10;;
35372;SDS011;21476;51.652;7.852;2023-02-01T00:50:23;35.55;;;14.02;;
35372;SDS011;21476;51.652;7.852;2023-02-01T00:52:49;34.05;;;14.20;;
35372;SDS011;21476;51.652;7.852;2023-02-01T00:55:14;40.00;;;15.65;;
35372;SDS011;21476;51.652;7.852;2023-02-01T00:57:40;35.90;;;14.27;;
35372;SDS011;21476;51.652;7.852;2023-02-01T01:00:06;38.67;;;14.60;;
35372;SDS011;21476;51.652;7.852;2023-02-01T01:02:32;32.92;;;14.80;;
35372;SDS011;21476;51.652;7.852;2023-02-01T01:04:57;35.80;;;15.38;;
35372;SDS011;21476;51.652;7.852;2023-02-01T01:07:23;38.35;;;13.90;;
35372;SDS011;21476;51.652;7.852;2023-02-01T01:09:48;39.97;;;15.38;;
35372;SDS011;21476;51.652;7.852;2023-02-01T01:12:14;34.05;;;13.95;;
35372;SDS011;21476;51.652;7.852;2023-02-01T01:14:40;36.78;;;13.50;;
35372;SDS011;21476;51.652;7.852;2023-02-01T01:17:05;28.73;;;13.07;;
35372;SDS011;21476;51.652;7.852;2023-02-01T01:19:31;34.05;;;12.73;;
35372;SDS011;21476;51.652;7.852;2023-02-01T01:21:56;29.02;;;11.38;;
35372;SDS011;21476;51.652;7.852;2023-02-01T01:24:22;29.67;;;11.77;;
35372;SDS011;21476;51.652;7.852;2023-02-01T01:26:47;22.90;;;9.70;;
35372;SDS011;21476;51.652;7.852;2023-02-01T01:29:13;32.50;;;10.50;;
35372;SDS011;21476;51.652;7.852;2023-02-01T01:31:38;31.92;;;9.82;;
35372;SDS011;21476;51.652;7.852;2023-02-01T01:34:04;28.85;;;9.18;;
35372;SDS011;21476;51.652;7.852;2023-02-01T01:36:30;30.45;;;9.32;;
35372;SDS011;21476;51.652;7.852;2023-02-01T01:38:55;28.27;;;8.57;;
35372;SDS011;21476;51.652;7.852;2023-02-01T01:41:22;32.42;;;8.18;;
35372;SDS011;21476;51.652;7.852;2023-02-01T01:43:57;30.77;;;8.40;;
35372;SDS011;21476;51.652;7.852;2023-02-01T01:49:01;24.60;;;7.70;;
35372;SDS011;21476;51.652;7.852;2023-02-01T01:51:30;26.20;;;6.45;;
35372;SDS011;21476;51.652;7.852;2023-02-01T01:54:00;23.27;;;6.35;;
35372;SDS011;21476;51.652;7.852;2023-02-01T01:56:33;28.77;;;6.63;;
35372;SDS011;21476;51.652;7.852;2023-02-01T01:59:00;32.15;;;7.93;;
35372;SDS011;21476;51.652;7.852;2023-02-01T02:01:27;22.20;;;6.13;;
35372;SDS011;21476;51.652;7.852;2023-02-01T02:03:53;27.77;;;6.60;;
35372;SDS011;21476;51.652;7.852;2023-02-01T02:06:37;28.95;;;6.47;;
35372;SDS011;21476;51.652;7.852;2023-02-01T02:09:08;25.90;;;5.38;;
35372;SDS011;21476;51.652;7.852;2023-02-01T02:11:34;27.77;;;5.70;;
35372;SDS011;21476;51.652;7.852;2023-02-01T02:14:00;14.07;;;5.00;;
35372;SDS011;21476;51.652;7.852;2023-02-01T02:37:19;24.48;;;4.78;;
35372;SDS011;21476;51.652;7.852;2023-02-01T02:39:50;24.80;;;4.72;;
35372;SDS011;21476;51.652;7.852;2023-02-01T02:48:34;20.83;;;5.05;;
35372;SDS011;21476;51.652;7.852;2023-02-01T02:54:14;19.50;;;5.50;;
35372;SDS011;21476;51.652;7.852;2023-02-01T02:57:03;21.92;;;4.65;;
35372;SDS011;21476;51.652;7.852;2023-02-01T02:59:51;25.38;;;4.93;;
35372;SDS011;21476;51.652;7.852;2023-02-01T03:02:36;25.60;;;5.55;;
35372;SDS011;21476;51.652;7.852;2023-02-01T03:05:21;23.02;;;5.65;;
35372;SDS011;21476;51.652;7.852;2023-02-01T03:07:53;23.65;;;4.75;;
35372;SDS011;21476;51.652;7.852;2023-02-01T03:16:04;26.13;;;5.63;;
35372;SDS011;21476;51.652;7.852;2023-02-01T03:21:24;20.13;;;4.28;;
35372;SDS011;21476;51.652;7.852;2023-02-01T03:23:57;22.45;;;5.05;;
35372;SDS011;21476;51.652;7.852;2023-02-01T03:26:26;24.00;;;4.75;;
35372;SDS011;21476;51.652;7.852;2023-02-01T03:29:02;20.75;;;5.20;;
35372;SDS011;21476;51.652;7.852;2023-02-01T03:31:35;21.60;;;5.65;;
35372;SDS011;21476;51.652;7.852;2023-02-01T03:34:00;19.92;;;4.68;;
35372;SDS011;21476;51.652;7.852;2023-02-01T03:36:29;18.27;;;5.13;;
35372;SDS011;21476;51.652;7.852;2023-02-01T03:39:05;16.38;;;4.95;;
35372;SDS011;21476;51.652;7.852;2023-02-01T03:42:03;28.05;;;5.93;;
35372;SDS011;21476;51.652;7.852;2023-02-01T03:45:08;18.92;;;5.22;;
35372;SDS011;21476;51.652;7.852;2023-02-01T03:47:37;18.10;;;4.78;;
35372;SDS011;21476;51.652;7.852;2023-02-01T03:50:13;25.40;;;6.43;;
35372;SDS011;21476;51.652;7.852;2023-02-01T03:52:52;23.10;;;5.70;;
35372;SDS011;21476;51.652;7.852;2023-02-01T03:55:25;27.15;;;4.60;;
35372;SDS011;21476;51.652;7.852;2023-02-01T03:57:55;21.10;;;4.53;;
35372;SDS011;21476;51.652;7.852;2023-02-01T04:00:26;25.83;;;6.00;;
35372;SDS011;21476;51.652;7.852;2023-02-01T04:02:52;19.38;;;4.93;;
35372;SDS011;21476;51.652;7.852;2023-02-01T04:05:18;14.30;;;3.90;;
35372;SDS011;21476;51.652;7.852;2023-02-01T04:07:43;30.17;;;5.28;;
35372;SDS011;21476;51.652;7.852;2023-02-01T04:10:09;26.17;;;5.55;;
35372;SDS011;21476;51.652;7.852;2023-02-01T04:12:35;17.90;;;4.40;;
35372;SDS011;21476;51.652;7.852;2023-02-01T04:15:01;19.70;;;4.30;;
35372;SDS011;21476;51.652;7.852;2023-02-01T04:17:28;21.98;;;4.75;;
35372;SDS011;21476;51.652;7.852;2023-02-01T04:19:53;22.48;;;4.68;;
35372;SDS011;21476;51.652;7.852;2023-02-01T04:22:19;27.13;;;5.43;;
35372;SDS011;21476;51.652;7.852;2023-02-01T04:24:44;25.33;;;5.32;;
35372;SDS011;21476;51.652;7.852;2023-02-01T04:27:10;25.95;;;5.15;;
35372;SDS011;21476;51.652;7.852;2023-02-01T04:29:35;23.60;;;4.75;;
35372;SDS011;21476;51.652;7.852;2023-02-01T04:32:01;26.60;;;5.30;;
35372;SDS011;21476;51.652;7.852;2023-02-01T04:34:27;24.92;;;6.05;;
35372;SDS011;21476;51.652;7.852;2023-02-01T04:36:52;19.98;;;4.43;;
35372;SDS011;21476;51.652;7.852;2023-02-01T04:39:18;20.08;;;5.15;;
35372;SDS011;21476;51.652;7.852;2023-02-01T04:41:43;19.42;;;4.07;;
35372;SDS011;21476;51.652;7.852;2023-02-01T04:44:13;22.38;;;4.60;;
35372;SDS011;21476;51.652;7.852;2023-02-01T04:46:41;27.20;;;5.60;;
35372;SDS011;21476;51.652;7.852;2023-02-01T04:49:07;17.33;;;4.25;;
35372;SDS011;21476;51.652;7.852;2023-02-01T04:51:34;29.00;;;5.30;;
35372;SDS011;21476;51.652;7.852;2023-02-01T04:54:00;18.63;;;5.55;;
35372;SDS011;21476;51.652;7.852;2023-02-01T04:56:25;22.20;;;5.43;;
35372;SDS011;21476;51.652;7.852;2023-02-01T04:58:51;28.73;;;4.93;;
35372;SDS011;21476;51.652;7.852;2023-02-01T05:01:16;25.92;;;5.90;;
35372;SDS011;21476;51.652;7.852;2023-02-01T05:03:42;24.67;;;5.25;;
35372;SDS011;21476;51.652;7.852;2023-02-01T05:06:08;25.73;;;4.35;;
35372;SDS011;21476;51.652;7.852;2023-02-01T05:08:33;21.45;;;4.63;;
35372;SDS011;21476;51.652;7.852;2023-02-01T05:10:59;26.33;;;4.85;;
35372;SDS011;21476;51.652;7.852;2023-02-01T05:13:27;17.63;;;5.28;;
35372;SDS011;21476;51.652;7.852;2023-02-01T05:16:11;24.60;;;4.07;;
35372;SDS011;21476;51.652;7.852;2023-02-01T05:18:37;19.90;;;4.43;;
35372;SDS011;21476;51.652;7.852;2023-02-01T05:21:02;26.38;;;5.32;;
35372;SDS011;21476;51.652;7.852;2023-02-01T05:23:28;32.28;;;5.60;;
35372;SDS011;21476;51.652;7.852;2023-02-01T05:25:57;22.00;;;5.28;;
35372;SDS011;21476;51.652;7.852;2023-02-01T05:28:27;23.88;;;4.40;;
35372;SDS011;21476;51.652;7.852;2023-02-01T05:30:53;21.08;;;4.85;;
35372;SDS011;21476;51.652;7.852;2023-02-01T05:33:19;20.98;;;4.43;;
35372;SDS011;21476;51.652;7.852;2023-02-01T05:35:45;23.00;;;4.40;;
35372;SDS011;21476;51.652;7.852;2023-02-01T05:38:11;23.80;;;5.15;;
35372;SDS011;21476;51.652;7.852;2023-02-01T05:40:36;25.83;;;4.82;;
35372;SDS011;21476;51.652;7.852;2023-02-01T05:43:02;24.55;;;5.20;;
35372;SDS011;21476;51.652;7.852;2023-02-01T05:45:28;24.67;;;4.78;;
35372;SDS011;21476;51.652;7.852;2023-02-01T05:47:53;23.90;;;5.13;;
35372;SDS011;21476;51.652;7.852;2023-02-01T05:50:19;20.88;;;4.70;;
35372;SDS011;21476;51.652;7.852;2023-02-01T05:52:44;21.83;;;4.80;;
35372;SDS011;21476;51.652;7.852;2023-02-01T05:55:10;22.25;;;4.40;;
35372;SDS011;21476;51.652;7.852;2023-02-01T05:57:36;24.13;;;4.95;;
35372;SDS011;21476;51.652;7.852;2023-02-01T06:00:02;17.58;;;3.92;;
35372;SDS011;21476;51.652;7.852;2023-02-01T06:02:28;21.38;;;3.70;;
35372;SDS011;21476;51.652;7.852;2023-02-01T06:04:53;23.45;;;4.00;;
35372;SDS011;21476;51.652;7.852;2023-02-01T06:07:19;28.52;;;4.95;;
35372;SDS011;21476;51.652;7.852;2023-02-01T06:09:46;20.42;;;4.97;;
35372;SDS011;21476;51.652;7.852;2023-02-01T06:12:12;21.70;;;4.43;;
35372;SDS011;21476;51.652;7.852;2023-02-01T06:14:38;20.60;;;4.35;;
35372;SDS011;21476;51.652;7.852;2023-02-01T06:17:04;19.90;;;4.45;;
35372;SDS011;21476;51.652;7.852;2023-02-01T06:19:31;23.45;;;5.15;;
35372;SDS011;21476;51.652;7.852;2023-02-01T06:21:56;31.63;;;5.70;;
35372;SDS011;21476;51.652;7.852;2023-02-01T06:24:22;20.25;;;4.60;;
35372;SDS011;21476;51.652;7.852;2023-02-01T06:26:48;21.88;;;5.10;;
35372;SDS011;21476;51.652;7.852;2023-02-01T06:29:13;25.23;;;4.97;;
35372;SDS011;21476;51.652;7.852;2023-02-01T06:31:40;23.98;;;4.78;;
35372;SDS011;21476;51.652;7.852;2023-02-01T06:34:07;27.02;;;4.28;;
35372;SDS011;21476;51.652;7.852;2023-02-01T06:36:33;21.52;;;4.38;;
35372;SDS011;21476;51.652;7.852;2023-02-01T06:41:53;20.55;;;5.00;;
35372;SDS011;21476;51.652;7.852;2023-02-01T06:44:18;21.30;;;3.92;;
35372;SDS011;21476;51.652;7.852;2023-02-01T06:46:48;23.52;;;4.72;;
35372;SDS011;21476;51.652;7.852;2023-02-01T06:49:15;28.90;;;5.80;;
35372;SDS011;21476;51.652;7.852;2023-02-01T06:51:44;25.75;;;5.13;;
35372;SDS011;21476;51.652;7.852;2023-02-01T06:54:10;17.48;;;3.95;;
35372;SDS011;21476;51.652;7.852;2023-02-01T06:56:38;34.03;;;5.63;;
35372;SDS011;21476;51.652;7.852;2023-02-01T06:59:07;22.75;;;4.43;;
35372;SDS011;21476;51.652;7.852;2023-02-01T07:01:44;21.27;;;5.20;;
35372;SDS011;21476;51.652;7.852;2023-02-01T07:04:18;24.70;;;5.03;;
35372;SDS011;21476;51.652;7.852;2023-02-01T07:06:44;20.38;;;4.32;;
35372;SDS011;21476;51.652;7.852;2023-02-01T07:09:09;26.13;;;5.05;;
35372;SDS011;21476;51.652;7.852;2023-02-01T07:11:44;26.88;;;5.93;;
35372;SDS011;21476;51.652;7.852;2023-02-01T07:14:10;18.13;;;4.93;;
35372;SDS011;21476;51.652;7.852;2023-02-01T07:16:36;28.40;;;5.03;;
35372;SDS011;21476;51.652;7.852;2023-02-01T07:19:02;21.05;;;4.80;;
35372;SDS011;21476;51.652;7.852;2023-02-01T07:21:30;29.33;;;6.18;;
35372;SDS011;21476;51.652;7.852;2023-02-01T07:23:55;19.38;;;4.53;;
35372;SDS011;21476;51.652;7.852;2023-02-01T07:26:21;22.85;;;5.40;;
35372;SDS011;21476;51.652;7.852;2023-02-01T07:28:47;20.85;;;4.90;;
35372;SDS011;21476;51.652;7.852;2023-02-01T07:31:14;26.80;;;5.65;;
35372;SDS011;21476;51.652;7.852;2023-02-01T07:33:43;20.40;;;4.47;;
35372;SDS011;21476;51.652;7.852;2023-02-01T07:36:13;34.25;;;5.15;;
35372;SDS011;21476;51.652;7.852;2023-02-01T07:38:41;21.70;;;5.63;;
35372;SDS011;21476;51.652;7.852;2023-02-01T07:41:07;26.17;;;5.20;;
35372;SDS011;21476;51.652;7.852;2023-02-01T07:43:33;19.35;;;4.32;;
35372;SDS011;21476;51.652;7.852;2023-02-01T07:45:59;26.58;;;5.47;;
35372;SDS011;21476;51.652;7.852;2023-02-01T07:48:26;21.70;;;5.28;;
35372;SDS011;21476;51.652;7.852;2023-02-01T07:51:02;22.50;;;4.90;;
35372;SDS011;21476;51.652;7.852;2023-02-01T07:53:29;24.45;;;4.40;;
35372;SDS011;21476;51.652;7.852;2023-02-01T07:55:55;19.48;;;4.97;;
35372;SDS011;21476;51.652;7.852;2023-02-01T07:58:22;25.48;;;4.75;;
35372;SDS011;21476;51.652;7.852;2023-02-01T08:00:49;25.45;;;4.70;;
35372;SDS011;21476;51.652;7.852;2023-02-01T08:03:33;18.20;;;4.57;;
35372;SDS011;21476;51.652;7.852;2023-02-01T08:05:59;28.17;;;6.18;;
35372;SDS011;21476;51.652;7.852;2023-02-01T08:08:25;19.00;;;5.30;;
35372;SDS011;21476;51.652;7.852;2023-02-01T08:10:50;19.35;;;5.13;;
35372;SDS011;21476;51.652;7.852;2023-02-01T08:13:16;20.20;;;4.68;;
35372;SDS011;21476;51.652;7.852;2023-02-01T08:15:42;24.63;;;5.68;;
35372;SDS011;21476;51.652;7.852;2023-02-01T08:18:07;29.30;;;5.32;;
35372;SDS011;21476;51.652;7.852;2023-02-01T08:20:35;27.30;;;6.35;;
35372;SDS011;21476;51.652;7.852;2023-02-01T08:23:01;30.55;;;5.55;;
35372;SDS011;21476;51.652;7.852;2023-02-01T08:25:26;33.42;;;6.15;;
35372;SDS011;21476;51.652;7.852;2023-02-01T08:27:52;29.08;;;5.47;;
35372;SDS011;21476;51.652;7.852;2023-02-01T08:30:19;30.02;;;5.53;;
35372;SDS011;21476;51.652;7.852;2023-02-01T08:32:45;24.23;;;5.78;;
35372;SDS011;21476;51.652;7.852;2023-02-01T08:35:11;25.77;;;6.60;;
35372;SDS011;21476;51.652;7.852;2023-02-01T08:37:36;25.55;;;5.68;;
35372;SDS011;21476;51.652;7.852;2023-02-01T08:40:03;25.27;;;5.30;;
35372;SDS011;21476;51.652;7.852;2023-02-01T08:42:29;26.77;;;5.97;;
35372;SDS011;21476;51.652;7.852;2023-02-01T08:45:13;23.48;;;5.28;;
35372;SDS011;21476;51.652;7.852;2023-02-01T08:47:39;26.45;;;6.70;;
35372;SDS011;21476;51.652;7.852;2023-02-01T08:50:04;23.30;;;5.20;;
35372;SDS011;21476;51.652;7.852;2023-02-01T08:52:30;24.35;;;5.63;;
35372;SDS011;21476;51.652;7.852;2023-02-01T08:54:56;28.60;;;6.53;;
35372;SDS011;21476;51.652;7.852;2023-02-01T08:57:22;23.10;;;5.18;;
35372;SDS011;21476;51.652;7.852;2023-02-01T08:59:47;23.92;;;5.50;;
35372;SDS011;21476;51.652;7.852;2023-02-01T09:02:14;28.90;;;6.32;;
35372;SDS011;21476;51.652;7.852;2023-02-01T09:04:40;28.85;;;6.18;;
35372;SDS011;21476;51.652;7.852;2023-02-01T09:07:07;26.45;;;6.63;;
35372;SDS011;21476;51.652;7.852;2023-02-01T09:09:34;28.30;;;5.63;;
35372;SDS011;21476;51.652;7.852;2023-02-01T09:12:00;19.77;;;5.95;;
35372;SDS011;21476;51.652;7.852;2023-02-01T09:14:25;20.63;;;5.95;;
35372;SDS011;21476;51.652;7.852;2023-02-01T09:16:51;29.08;;;5.43;;
35372;SDS011;21476;51.652;7.852;2023-02-01T09:19:16;29.50;;;6.00;;
35372;SDS011;21476;51.652;7.852;2023-02-01T09:21:42;19.60;;;5.20;;
35372;SDS011;21476;51.652;7.852;2023-02-01T09:24:09;30.63;;;5.88;;
35372;SDS011;21476;51.652;7.852;2023-02-01T09:26:36;24.27;;;6.20;;
35372;SDS011;21476;51.652;7.852;2023-02-01T09:29:02;23.08;;;6.13;;
35372;SDS011;21476;51.652;7.852;2023-02-01T09:31:31;23.48;;;5.13;;
35372;SDS011;21476;51.652;7.852;2023-02-01T09:33:56;22.45;;;5.82;;
35372;SDS011;21476;51.652;7.852;2023-02-01T09:36:22;31.33;;;7.28;;
35372;SDS011;21476;51.652;7.852;2023-02-01T09:38:48;28.30;;;6.55;;
35372;SDS011;21476;51.652;7.852;2023-02-01T09:44:12;30.70;;;7.32;;
35372;SDS011;21476;51.652;7.852;2023-02-01T09:46:47;20.00;;;5.18;;
35372;SDS011;21476;51.652;7.852;2023-02-01T09:49:18;30.73;;;5.53;;
35372;SDS011;21476;51.652;7.852;2023-02-01T09:51:48;30.73;;;6.95;;
35372;SDS011;21476;51.652;7.852;2023-02-01T09:54:20;34.60;;;6.63;;
35372;SDS011;21476;51.652;7.852;2023-02-01T09:56:51;25.77;;;5.30;;
35372;SDS011;21476;51.652;7.852;2023-02-01T09:59:34;33.13;;;7.70;;
35372;SDS011;21476;51.652;7.852;2023-02-01T10:02:27;25.13;;;5.90;;
35372;SDS011;21476;51.652;7.852;2023-02-01T10:04:54;28.13;;;6.03;;
35372;SDS011;21476;51.652;7.852;2023-02-01T10:20:36;26.58;;;6.45;;
35372;SDS011;21476;51.652;7.852;2023-02-01T10:28:41;20.80;;;6.53;;
35372;SDS011;21476;51.652;7.852;2023-02-01T10:31:09;26.65;;;5.95;;
35372;SDS011;21476;51.652;7.852;2023-02-01T10:33:37;25.80;;;7.10;;
35372;SDS011;21476;51.652;7.852;2023-02-01T10:38:45;25.27;;;6.50;;
35372;SDS011;21476;51.652;7.852;2023-02-01T10:41:18;20.80;;;5.93;;
35372;SDS011;21476;51.652;7.852;2023-02-01T10:43:48;23.33;;;6.18;;
35372;SDS011;21476;51.652;7.852;2023-02-01T10:46:18;24.98;;;6.90;;
35372;SDS011;21476;51.652;7.852;2023-02-01T10:48:43;25.63;;;6.75;;
35372;SDS011;21476;51.652;7.852;2023-02-01T10:51:19;27.30;;;7.70;;
35372;SDS011;21476;51.652;7.852;2023-02-01T10:53:53;25.95;;;7.45;;
35372;SDS011;21476;51.652;7.852;2023-02-01T10:56:28;21.80;;;6.60;;
35372;SDS011;21476;51.652;7.852;2023-02-01T10:59:00;26.27;;;6.50;;
35372;SDS011;21476;51.652;7.852;2023-02-01T11:01:29;25.15;;;7.03;;
35372;SDS011;21476;51.652;7.852;2023-02-01T11:03:59;21.17;;;7.65;;
35372;SDS011;21476;51.652;7.852;2023-02-01T11:06:37;25.70;;;6.05;;
35372;SDS011;21476;51.652;7.852;2023-02-01T11:14:16;24.20;;;7.90;;
35372;SDS011;21476;51.652;7.852;2023-02-01T11:16:54;26.88;;;7.30;;
35372;SDS011;21476;51.652;7.852;2023-02-01T11:19:22;25.10;;;7.45;;
35372;SDS011;21476;51.652;7.852;2023-02-01T11:21:49;25.50;;;6.65;;
35372;SDS011;21476;51.652;7.852;2023-02-01T11:24:24;23.13;;;6.93;;
35372;SDS011;21476;51.652;7.852;2023-02-01T11:26:59;21.88;;;6.82;;
35372;SDS011;21476;51.652;7.852;2023-02-01T11:29:28;26.30;;;7.03;;
35372;SDS011;21476;51.652;7.852;2023-02-01T11:32:03;26.40;;;7.43;;
35372;SDS011;21476;51.652;7.852;2023-02-01T11:34:36;27.23;;;6.88;;
35372;SDS011;21476;51.652;7.852;2023-02-01T11:37:04;20.52;;;7.30;;
35372;SDS011;21476;51.652;7.852;2023-02-01T11:39:36;20.52;;;6.30;;
35372;SDS011;21476;51.652;7.852;2023-02-01T11:42:06;24.60;;;6.53;;
35372;SDS011;21476;51.652;7.852;2023-02-01T11:44:39;22.23;;;7.38;;
35372;SDS011;21476;51.652;7.852;2023-02-01T11:47:26;30.80;;;6.50;;
35372;SDS011;21476;51.652;7.852;2023-02-01T11:49:54;23.10;;;6.32;;
35372;SDS011;21476;51.652;7.852;2023-02-01T11:55:03;26.10;;;7.40;;
35372;SDS011;21476;51.652;7.852;2023-02-01T12:14:02;33.03;;;7.13;;
35372;SDS011;21476;51.652;7.852;2023-02-01T12:17:35;26.50;;;6.95;;
35372;SDS011;21476;51.652;7.852;2023-02-01T12:23:14;28.02;;;8.20;;
35372;SDS011;21476;51.652;7.852;2023-02-01T12:39:38;26.17;;;7.90;;
35372;SDS011;21476;51.652;7.852;2023-02-01T12:42:16;28.50;;;10.10;;
35372;SDS011;21476;51.652;7.852;2023-02-01T12:45:14;31.17;;;8.82;;
35372;SDS011;21476;51.652;7.852;2023-02-01T12:47:51;21.40;;;8.43;;
35372;SDS011;21476;51.652;7.852;2023-02-01T12:53:50;21.27;;;8.40;;
35372;SDS011;21476;51.652;7.852;2023-02-01T12:57:00;29.77;;;8.43;;
35372;SDS011;21476;51.652;7.852;2023-02-01T12:59:19;27.98;;;7.38;;
35372;SDS011;21476;51.652;7.852;2023-02-01T13:01:46;32.13;;;8.70;;
35372;SDS011;21476;51.652;7.852;2023-02-01T13:04:29;30.80;;;7.97;;
35372;SDS011;21476;51.652;7.852;2023-02-01T13:07:02;24.38;;;7.70;;
35372;SDS011;21476;51.652;7.852;2023-02-01T13:09:40;26.40;;;8.48;;
35372;SDS011;21476;51.652;7.852;2023-02-01T13:12:11;30.85;;;8.63;;
35372;SDS011;21476;51.652;7.852;2023-02-01T13:17:15;20.05;;;6.65;;
35372;SDS011;21476;51.652;7.852;2023-02-01T13:19:57;24.15;;;7.63;;
35372;SDS011;21476;51.652;7.852;2023-02-01T13:22:29;26.60;;;6.30;;
35372;SDS011;21476;51.652;7.852;2023-02-01T13:25:13;27.92;;;7.22;;
35372;SDS011;21476;51.652;7.852;2023-02-01T13:28:01;27.95;;;5.93;;
35372;SDS011;21476;51.652;7.852;2023-02-01T13:42:30;25.20;;;6.22;;
35372;SDS011;21476;51.652;7.852;2023-02-01T13:45:06;23.10;;;6.00;;
35372;SDS011;21476;51.652;7.852;2023-02-01T13:47:41;25.60;;;5.07;;
35372;SDS011;21476;51.652;7.852;2023-02-01T13:55:58;20.98;;;5.35;;
35372;SDS011;21476;51.652;7.852;2023-02-01T14:03:48;19.58;;;4.30;;
35372;SDS011;21476;51.652;7.852;2023-02-01T14:06:18;27.23;;;6.53;;
35372;SDS011;21476;51.652;7.852;2023-02-01T14:09:13;23.23;;;5.03;;
35372;SDS011;21476;51.652;7.852;2023-02-01T14:11:45;19.20;;;5.15;;
35372;SDS011;21476;51.652;7.852;2023-02-01T14:16:44;18.40;;;4.30;;
35372;SDS011;21476;51.652;7.852;2023-02-01T14:20:12;23.35;;;5.10;;
35372;SDS011;21476;51.652;7.852;2023-02-01T14:23:02;18.90;;;5.25;;
35372;SDS011;21476;51.652;7.852;2023-02-01T14:25:32;21.00;;;4.10;;
35372;SDS011;21476;51.652;7.852;2023-02-01T14:27:58;24.23;;;4.95;;
35372;SDS011;21476;51.652;7.852;2023-02-01T14:30:25;20.77;;;3.85;;
35372;SDS011;21476;51.652;7.852;2023-02-01T14:32:51;20.98;;;5.18;;
35372;SDS011;21476;51.652;7.852;2023-02-01T14:35:21;15.82;;;3.83;;
35372;SDS011;21476;51.652;7.852;2023-02-01T14:37:51;23.60;;;6.35;;
35372;SDS011;21476;51.652;7.852;2023-02-01T14:40:22;16.55;;;4.35;;
35372;SDS011;21476;51.652;7.852;2023-02-01T14:42:50;18.88;;;4.68;;
35372;SDS011;21476;51.652;7.852;2023-02-01T14:47:50;25.35;;;4.95;;
35372;SDS011;21476;51.652;7.852;2023-02-01T15:01:27;21.73;;;4.57;;
35372;SDS011;21476;51.652;7.852;2023-02-01T15:04:11;17.40;;;4.03;;
35372;SDS011;21476;51.652;7.852;2023-02-01T15:06:43;22.25;;;5.68;;
35372;SDS011;21476;51.652;7.852;2023-02-01T15:09:23;28.90;;;5.45;;
35372;SDS011;21476;51.652;7.852;2023-02-01T15:14:36;30.05;;;5.68;;
35372;SDS011;21476;51.652;7.852;2023-02-01T15:17:18;20.92;;;5.00;;
35372;SDS011;21476;51.652;7.852;2023-02-01T15:19:55;18.83;;;4.20;;
35372;SDS011;21476;51.652;7.852;2023-02-01T15:22:22;17.63;;;4.13;;
35372;SDS011;21476;51.652;7.852;2023-02-01T15:24:55;36.17;;;5.68;;
35372;SDS011;21476;51.652;7.852;2023-02-01T15:27:25;24.48;;;4.40;;
35372;SDS011;21476;51.652;7.852;2023-02-01T15:29:52;17.67;;;4.57;;
35372;SDS011;21476;51.652;7.852;2023-02-01T15:32:28;20.08;;;4.55;;
35372;SDS011;21476;51.652;7.852;2023-02-01T15:34:58;19.00;;;4.95;;
35372;SDS011;21476;51.652;7.852;2023-02-01T15:37:28;30.70;;;6.28;;
35372;SDS011;21476;51.652;7.852;2023-02-01T15:42:35;24.02;;;4.97;;
35372;SDS011;21476;51.652;7.852;2023-02-01T15:45:13;23.25;;;4.85;;
35372;SDS011;21476;51.652;7.852;2023-02-01T15:47:49;23.73;;;5.07;;
35372;SDS011;21476;51.652;7.852;2023-02-01T15:50:16;25.17;;;5.13;;
35372;SDS011;21476;51.652;7.852;2023-02-01T15:52:45;21.20;;;4.50;;
35372;SDS011;21476;51.652;7.852;2023-02-01T15:55:24;23.15;;;4.45;;
35372;SDS011;21476;51.652;7.852;2023-02-01T15:58:06;22.80;;;4.15;;
35372;SDS011;21476;51.652;7.852;2023-02-01T16:00:40;24.33;;;4.15;;
35372;SDS011;21476;51.652;7.852;2023-02-01T16:03:23;20.60;;;4.55;;
35372;SDS011;21476;51.652;7.852;2023-02-01T16:05:58;22.67;;;5.65;;
35372;SDS011;21476;51.652;7.852;2023-02-01T16:08:27;20.58;;;3.83;;
35372;SDS011;21476;51.652;7.852;2023-02-01T16:10:59;22.90;;;5.18;;
35372;SDS011;21476;51.652;7.852;2023-02-01T16:13:46;18.42;;;3.70;;
35372;SDS011;21476;51.652;7.852;2023-02-01T16:16:12;15.65;;;4.43;;
35372;SDS011;21476;51.652;7.852;2023-02-01T16:18:39;21.38;;;4.95;;
35372;SDS011;21476;51.652;7.852;2023-02-01T16:21:05;23.50;;;5.15;;
35372;SDS011;21476;51.652;7.852;2023-02-01T16:23:33;19.55;;;4.53;;
35372;SDS011;21476;51.652;7.852;2023-02-01T16:25:59;23.08;;;5.65;;
35372;SDS011;21476;51.652;7.852;2023-02-01T16:28:25;21.50;;;5.05;;
35372;SDS011;21476;51.652;7.852;2023-02-01T16:30:51;21.30;;;4.20;;
35372;SDS011;21476;51.652;7.852;2023-02-01T16:33:18;19.83;;;5.00;;
35372;SDS011;21476;51.652;7.852;2023-02-01T16:35:46;22.73;;;4.15;;
35372;SDS011;21476;51.652;7.852;2023-02-01T16:38:15;23.00;;;4.65;;
35372;SDS011;21476;51.652;7.852;2023-02-01T16:40:44;21.77;;;4.50;;
35372;SDS011;21476;51.652;7.852;2023-02-01T16:43:14;20.23;;;6.03;;
35372;SDS011;21476;51.652;7.852;2023-02-01T16:45:45;21.10;;;5.40;;
35372;SDS011;21476;51.652;7.852;2023-02-01T16:48:27;21.50;;;5.95;;
35372;SDS011;21476;51.652;7.852;2023-02-01T16:50:54;19.88;;;5.20;;
35372;SDS011;21476;51.652;7.852;2023-02-01T16:53:26;25.60;;;5.22;;
35372;SDS011;21476;51.652;7.852;2023-02-01T16:55:53;29.60;;;5.40;;
35372;SDS011;21476;51.652;7.852;2023-02-01T16:58:19;15.75;;;4.03;;
35372;SDS011;21476;51.652;7.852;2023-02-01T17:00:46;18.50;;;4.38;;
35372;SDS011;21476;51.652;7.852;2023-02-01T17:03:12;16.88;;;4.28;;
35372;SDS011;21476;51.652;7.852;2023-02-01T17:05:44;21.95;;;5.10;;
35372;SDS011;21476;51.652;7.852;2023-02-01T17:08:15;13.40;;;3.80;;
35372;SDS011;21476;51.652;7.852;2023-02-01T17:10:50;19.55;;;4.60;;
35372;SDS011;21476;51.652;7.852;2023-02-01T17:13:16;16.73;;;4.80;;
35372;SDS011;21476;51.652;7.852;2023-02-01T17:15:49;13.57;;;4.07;;
35372;SDS011;21476;51.652;7.852;2023-02-01T17:18:18;12.82;;;3.80;;
35372;SDS011;21476;51.652;7.852;2023-02-01T17:20:45;10.60;;;2.92;;
35372;SDS011;21476;51.652;7.852;2023-02-01T17:23:12;13.27;;;2.70;;
35372;SDS011;21476;51.652;7.852;2023-02-01T17:25:39;7.90;;;2.33;;
35372;SDS011;21476;51.652;7.852;2023-02-01T17:28:06;8.38;;;2.15;;
35372;SDS011;21476;51.652;7.852;2023-02-01T17:30:31;8.80;;;1.92;;